This is the latest recevied weather packets stored in our database for station/object KE4ODN. If no packets are shown the sender has not sent any weather packets the latest 10 day(s).
| Time | Temp. | Humidity | Pressure | Rain* | Wind** | Luminosity | Snow |
|---|---|---|---|---|---|---|---|
| 1777817284 | 13.33° C | 76% | 1021.5 hPa | 0 mm | - | 67 W/m² | - |
| 1777815364 | 11.67° C | 85% | 1021.4 hPa | 0 mm | - | 39 W/m² | - |
| 1777813204 | 8.89° C | 93% | 1021.4 hPa | 0 mm | - | 33 W/m² | - |
| 1777812004 | 7.78° C | 94% | 1021.3 hPa | 0 mm | - | 35 W/m² | - |
| 1777809604 | 6.67° C | 94% | 1021.1 hPa | 0 mm | - | 16 W/m² | - |
| 1777809364 | 6.11° C | 94% | 1021.1 hPa | 0 mm | - | 16 W/m² | - |
| 1777808884 | 6.11° C | 94% | 1020.9 hPa | 0 mm | - | 14 W/m² | - |
| 1777807924 | 5.56° C | 93% | 1020.7 hPa | 0 mm | - | 11 W/m² | - |
| 1777807705 | 5.56° C | 93% | 1020.5 hPa | 0 mm | - | 9 W/m² | - |
| 1777805785 | 6.11° C | 93% | 1020.3 hPa | 0 mm | - | 0 W/m² | - |
| 1777803604 | 6.11° C | 93% | 1020 hPa | 0 mm | - | 0 W/m² | - |
| 1777803124 | 6.11° C | 93% | 1020 hPa | 0 mm | - | 0 W/m² | - |
| 1777801684 | 6.67° C | 93% | 1019.6 hPa | 0 mm | - | 0 W/m² | - |
| 1777801444 | 6.11° C | 93% | 1019.7 hPa | 0 mm | - | 0 W/m² | - |
| 1777800724 | 6.67° C | 93% | 1019.6 hPa | 0 mm | - | 0 W/m² | - |
| 1777800265 | 6.67° C | 93% | 1019.6 hPa | 0 mm | - | 0 W/m² | - |
| 1777799764 | 6.67° C | 93% | 1019.6 hPa | 0 mm | - | 0 W/m² | - |
| 1777798564 | 7.22° C | 93% | 1019.6 hPa | 0 mm | - | 0 W/m² | - |
| 1777796164 | 7.22° C | 93% | 1019.3 hPa | 0 mm | - | 0 W/m² | - |
| 1777794745 | 7.22° C | 92% | 1019.1 hPa | 0 mm | - | 0 W/m² | - |
| 1777793284 | 7.78° C | 93% | 1019 hPa | 0 mm | - | 0 W/m² | - |
| 1777793065 | 7.78° C | 93% | 1018.9 hPa | 0 mm | - | 0 W/m² | - |
| 1777792825 | 7.78° C | 93% | 1018.8 hPa | 0 mm | - | 0 W/m² | - |
| 1777791364 | 7.78° C | 93% | 1018.7 hPa | 0 mm | - | 0 W/m² | - |
| 1777790644 | 7.78° C | 93% | 1018.7 hPa | 0 mm | - | 0 W/m² | - |
* Rain latest hour (hover to see other rain measurements)
** Current wind speed in m/s (hover to see current wind gust speed)